sensor_id;sensor_type;location;lat;lon;timestamp;temperature;humidity
13405;DHT22;6773;51.192;7.024;2022-09-28T00:03:32;8.10;99.90
13405;DHT22;6773;51.192;7.024;2022-09-28T00:06:03;8.10;99.90
13405;DHT22;6773;51.192;7.024;2022-09-28T00:10:56;8.10;99.90
13405;DHT22;6773;51.192;7.024;2022-09-28T00:13:22;8.10;99.90
13405;DHT22;6773;51.192;7.024;2022-09-28T00:16:01;8.10;99.90
13405;DHT22;6773;51.192;7.024;2022-09-28T00:18:27;8.10;99.90
13405;DHT22;6773;51.192;7.024;2022-09-28T00:21:07;8.10;99.90
13405;DHT22;6773;51.192;7.024;2022-09-28T00:23:34;8.10;99.90
13405;DHT22;6773;51.192;7.024;2022-09-28T00:26:20;8.10;99.90
13405;DHT22;6773;51.192;7.024;2022-09-28T00:36:05;8.10;99.90
13405;DHT22;6773;51.192;7.024;2022-09-28T00:40:57;8.00;99.90
13405;DHT22;6773;51.192;7.024;2022-09-28T00:43:24;8.00;99.90
13405;DHT22;6773;51.192;7.024;2022-09-28T00:46:04;8.00;99.90
13405;DHT22;6773;51.192;7.024;2022-09-28T00:48:35;8.00;99.90
13405;DHT22;6773;51.192;7.024;2022-09-28T00:51:07;8.00;99.90
13405;DHT22;6773;51.192;7.024;2022-09-28T00:53:36;8.00;99.90
13405;DHT22;6773;51.192;7.024;2022-09-28T00:56:17;8.00;99.90
13405;DHT22;6773;51.192;7.024;2022-09-28T00:58:49;7.90;99.90
13405;DHT22;6773;51.192;7.024;2022-09-28T01:01:16;7.90;99.90
13405;DHT22;6773;51.192;7.024;2022-09-28T01:03:41;7.90;99.90
13405;DHT22;6773;51.192;7.024;2022-09-28T01:06:12;7.90;99.90
13405;DHT22;6773;51.192;7.024;2022-09-28T01:08:40;7.90;99.90
13405;DHT22;6773;51.192;7.024;2022-09-28T01:11:09;8.00;99.90
13405;DHT22;6773;51.192;7.024;2022-09-28T01:13:35;7.90;99.90
13405;DHT22;6773;51.192;7.024;2022-09-28T01:19:16;8.00;99.90
13405;DHT22;6773;51.192;7.024;2022-09-28T01:22:10;8.10;99.90
13405;DHT22;6773;51.192;7.024;2022-09-28T01:24:46;8.00;99.90
13405;DHT22;6773;51.192;7.024;2022-09-28T01:35:28;7.90;99.90
13405;DHT22;6773;51.192;7.024;2022-09-28T01:40:26;7.90;99.90
13405;DHT22;6773;51.192;7.024;2022-09-28T01:43:01;7.80;99.90
13405;DHT22;6773;51.192;7.024;2022-09-28T01:45:31;7.80;99.90
13405;DHT22;6773;51.192;7.024;2022-09-28T01:48:01;7.80;99.90
13405;DHT22;6773;51.192;7.024;2022-09-28T01:50:32;7.80;99.90
13405;DHT22;6773;51.192;7.024;2022-09-28T01:55:41;7.80;99.90
13405;DHT22;6773;51.192;7.024;2022-09-28T01:58:16;7.70;99.90
13405;DHT22;6773;51.192;7.024;2022-09-28T02:00:45;7.80;99.90
13405;DHT22;6773;51.192;7.024;2022-09-28T02:03:20;7.80;99.90
13405;DHT22;6773;51.192;7.024;2022-09-28T02:05:54;7.70;99.90
13405;DHT22;6773;51.192;7.024;2022-09-28T02:08:26;7.70;99.90
13405;DHT22;6773;51.192;7.024;2022-09-28T02:11:15;7.90;99.90
13405;DHT22;6773;51.192;7.024;2022-09-28T02:16:39;7.80;99.90
13405;DHT22;6773;51.192;7.024;2022-09-28T02:19:08;7.80;99.90
13405;DHT22;6773;51.192;7.024;2022-09-28T02:24:17;7.80;99.90
13405;DHT22;6773;51.192;7.024;2022-09-28T02:26:47;7.80;99.90
13405;DHT22;6773;51.192;7.024;2022-09-28T02:29:14;7.80;99.90
13405;DHT22;6773;51.192;7.024;2022-09-28T02:31:39;7.80;99.90
13405;DHT22;6773;51.192;7.024;2022-09-28T02:34:05;7.80;99.90
13405;DHT22;6773;51.192;7.024;2022-09-28T02:36:32;7.80;99.90
13405;DHT22;6773;51.192;7.024;2022-09-28T02:41:47;7.80;99.90
13405;DHT22;6773;51.192;7.024;2022-09-28T02:47:14;7.80;99.90
13405;DHT22;6773;51.192;7.024;2022-09-28T02:55:47;7.80;99.90
13405;DHT22;6773;51.192;7.024;2022-09-28T02:58:32;7.80;99.90
13405;DHT22;6773;51.192;7.024;2022-09-28T03:01:33;7.80;99.90
13405;DHT22;6773;51.192;7.024;2022-09-28T03:06:51;7.80;99.90
13405;DHT22;6773;51.192;7.024;2022-09-28T03:09:24;7.80;99.90
13405;DHT22;6773;51.192;7.024;2022-09-28T03:11:56;7.80;99.90
13405;DHT22;6773;51.192;7.024;2022-09-28T03:14:23;7.80;99.90
13405;DHT22;6773;51.192;7.024;2022-09-28T03:16:48;7.80;99.90
13405;DHT22;6773;51.192;7.024;2022-09-28T03:19:16;7.80;99.90
13405;DHT22;6773;51.192;7.024;2022-09-28T03:24:09;7.80;99.90
13405;DHT22;6773;51.192;7.024;2022-09-28T03:26:38;7.80;99.90
13405;DHT22;6773;51.192;7.024;2022-09-28T03:31:30;7.90;99.90
13405;DHT22;6773;51.192;7.024;2022-09-28T03:33:56;7.90;99.90
13405;DHT22;6773;51.192;7.024;2022-09-28T03:36:22;7.80;99.90
13405;DHT22;6773;51.192;7.024;2022-09-28T03:38:47;7.90;99.90
13405;DHT22;6773;51.192;7.024;2022-09-28T03:41:13;7.80;99.90
13405;DHT22;6773;51.192;7.024;2022-09-28T03:43:38;7.90;99.90
13405;DHT22;6773;51.192;7.024;2022-09-28T03:46:04;7.90;99.90
13405;DHT22;6773;51.192;7.024;2022-09-28T03:48:32;7.80;99.90
13405;DHT22;6773;51.192;7.024;2022-09-28T03:51:00;7.80;99.90
13405;DHT22;6773;51.192;7.024;2022-09-28T03:55:54;7.80;99.90
13405;DHT22;6773;51.192;7.024;2022-09-28T03:58:21;7.90;99.90
13405;DHT22;6773;51.192;7.024;2022-09-28T04:00:48;7.80;99.90
13405;DHT22;6773;51.192;7.024;2022-09-28T04:03:13;7.90;99.90
13405;DHT22;6773;51.192;7.024;2022-09-28T04:05:47;7.80;99.90
13405;DHT22;6773;51.192;7.024;2022-09-28T04:08:13;7.80;99.90
13405;DHT22;6773;51.192;7.024;2022-09-28T04:10:38;7.80;99.90
13405;DHT22;6773;51.192;7.024;2022-09-28T04:13:04;7.80;99.90
13405;DHT22;6773;51.192;7.024;2022-09-28T04:15:30;7.80;99.90
13405;DHT22;6773;51.192;7.024;2022-09-28T04:17:55;7.80;99.90
13405;DHT22;6773;51.192;7.024;2022-09-28T04:20:21;7.80;99.90
13405;DHT22;6773;51.192;7.024;2022-09-28T04:25:12;7.80;99.90
13405;DHT22;6773;51.192;7.024;2022-09-28T04:30:23;7.80;99.90
13405;DHT22;6773;51.192;7.024;2022-09-28T04:32:49;7.70;99.90
13405;DHT22;6773;51.192;7.024;2022-09-28T04:35:14;7.80;99.90
13405;DHT22;6773;51.192;7.024;2022-09-28T04:37:40;7.80;99.90
13405;DHT22;6773;51.192;7.024;2022-09-28T04:42:32;7.80;99.90
13405;DHT22;6773;51.192;7.024;2022-09-28T04:44:57;7.80;99.90
13405;DHT22;6773;51.192;7.024;2022-09-28T04:47:25;7.80;99.90
13405;DHT22;6773;51.192;7.024;2022-09-28T04:49:51;7.90;99.90
13405;DHT22;6773;51.192;7.024;2022-09-28T04:52:17;7.80;99.90
13405;DHT22;6773;51.192;7.024;2022-09-28T04:54:42;7.80;99.90
13405;DHT22;6773;51.192;7.024;2022-09-28T04:59:34;7.80;99.90
13405;DHT22;6773;51.192;7.024;2022-09-28T05:02:01;7.90;99.90
13405;DHT22;6773;51.192;7.024;2022-09-28T05:04:26;7.80;99.90
13405;DHT22;6773;51.192;7.024;2022-09-28T05:06:52;7.90;99.90
13405;DHT22;6773;51.192;7.024;2022-09-28T05:09:18;7.90;99.90
13405;DHT22;6773;51.192;7.024;2022-09-28T05:11:43;7.90;99.90
13405;DHT22;6773;51.192;7.024;2022-09-28T05:14:10;7.90;99.90
13405;DHT22;6773;51.192;7.024;2022-09-28T05:19:02;7.90;99.90
13405;DHT22;6773;51.192;7.024;2022-09-28T05:21:27;7.90;99.90
13405;DHT22;6773;51.192;7.024;2022-09-28T05:23:54;7.90;99.90
13405;DHT22;6773;51.192;7.024;2022-09-28T05:26:21;7.90;99.90
13405;DHT22;6773;51.192;7.024;2022-09-28T05:28:47;8.00;99.90
13405;DHT22;6773;51.192;7.024;2022-09-28T05:31:13;7.90;99.90
13405;DHT22;6773;51.192;7.024;2022-09-28T05:33:38;8.00;99.90
13405;DHT22;6773;51.192;7.024;2022-09-28T05:36:06;8.00;99.90
13405;DHT22;6773;51.192;7.024;2022-09-28T05:38:32;8.10;99.90
13405;DHT22;6773;51.192;7.024;2022-09-28T05:40:58;8.00;99.90
13405;DHT22;6773;51.192;7.024;2022-09-28T05:45:49;8.00;99.90
13405;DHT22;6773;51.192;7.024;2022-09-28T05:53:08;8.00;99.90
13405;DHT22;6773;51.192;7.024;2022-09-28T05:55:35;8.00;99.90
13405;DHT22;6773;51.192;7.024;2022-09-28T05:58:03;8.00;99.90
13405;DHT22;6773;51.192;7.024;2022-09-28T06:00:31;8.00;99.90
13405;DHT22;6773;51.192;7.024;2022-09-28T06:02:58;7.90;99.90
13405;DHT22;6773;51.192;7.024;2022-09-28T06:05:25;7.80;99.90
13405;DHT22;6773;51.192;7.024;2022-09-28T06:07:53;7.90;99.90
13405;DHT22;6773;51.192;7.024;2022-09-28T06:10:19;8.00;99.90
13405;DHT22;6773;51.192;7.024;2022-09-28T06:15:13;7.90;99.90
13405;DHT22;6773;51.192;7.024;2022-09-28T06:17:39;7.90;99.90
13405;DHT22;6773;51.192;7.024;2022-09-28T06:20:05;7.90;99.90
13405;DHT22;6773;51.192;7.024;2022-09-28T06:22:30;7.90;99.90
13405;DHT22;6773;51.192;7.024;2022-09-28T06:24:56;7.90;99.90
13405;DHT22;6773;51.192;7.024;2022-09-28T06:27:21;7.90;99.90
13405;DHT22;6773;51.192;7.024;2022-09-28T06:29:47;7.90;99.90
13405;DHT22;6773;51.192;7.024;2022-09-28T06:37:06;7.90;99.90
13405;DHT22;6773;51.192;7.024;2022-09-28T06:39:32;7.90;99.90
13405;DHT22;6773;51.192;7.024;2022-09-28T06:41:57;7.80;99.90
13405;DHT22;6773;51.192;7.024;2022-09-28T06:44:29;7.90;99.90
13405;DHT22;6773;51.192;7.024;2022-09-28T06:46:56;7.90;99.90
13405;DHT22;6773;51.192;7.024;2022-09-28T06:49:22;8.00;99.90
13405;DHT22;6773;51.192;7.024;2022-09-28T06:54:14;8.00;99.90
13405;DHT22;6773;51.192;7.024;2022-09-28T06:56:39;8.00;99.90
13405;DHT22;6773;51.192;7.024;2022-09-28T06:59:05;8.00;99.90
13405;DHT22;6773;51.192;7.024;2022-09-28T07:01:31;8.00;99.90
13405;DHT22;6773;51.192;7.024;2022-09-28T07:16:11;7.90;99.90
13405;DHT22;6773;51.192;7.024;2022-09-28T07:18:37;8.00;99.90
13405;DHT22;6773;51.192;7.024;2022-09-28T07:21:02;8.00;99.90
13405;DHT22;6773;51.192;7.024;2022-09-28T07:26:02;8.10;99.90
13405;DHT22;6773;51.192;7.024;2022-09-28T07:30:56;8.00;99.90
13405;DHT22;6773;51.192;7.024;2022-09-28T07:33:22;8.00;99.90
13405;DHT22;6773;51.192;7.024;2022-09-28T07:35:53;8.10;99.90
13405;DHT22;6773;51.192;7.024;2022-09-28T07:40:45;8.10;99.90
13405;DHT22;6773;51.192;7.024;2022-09-28T07:43:30;8.10;99.90
13405;DHT22;6773;51.192;7.024;2022-09-28T07:45:55;8.20;99.90
13405;DHT22;6773;51.192;7.024;2022-09-28T07:48:22;8.20;99.90
13405;DHT22;6773;51.192;7.024;2022-09-28T07:50:48;8.20;99.90
13405;DHT22;6773;51.192;7.024;2022-09-28T07:53:17;8.20;99.90
13405;DHT22;6773;51.192;7.024;2022-09-28T07:55:49;8.20;99.90
13405;DHT22;6773;51.192;7.024;2022-09-28T08:00:41;8.20;99.90
13405;DHT22;6773;51.192;7.024;2022-09-28T08:08:01;8.40;99.90
13405;DHT22;6773;51.192;7.024;2022-09-28T08:10:26;8.50;99.90
13405;DHT22;6773;51.192;7.024;2022-09-28T08:12:55;8.60;99.90
13405;DHT22;6773;51.192;7.024;2022-09-28T08:15:21;8.70;99.90
13405;DHT22;6773;51.192;7.024;2022-09-28T08:17:47;8.60;99.90
13405;DHT22;6773;51.192;7.024;2022-09-28T08:20:14;8.70;99.90
13405;DHT22;6773;51.192;7.024;2022-09-28T08:23:05;8.70;99.90
13405;DHT22;6773;51.192;7.024;2022-09-28T08:25:31;8.80;99.90
13405;DHT22;6773;51.192;7.024;2022-09-28T08:27:57;8.80;99.90
13405;DHT22;6773;51.192;7.024;2022-09-28T08:32:51;8.80;99.90
13405;DHT22;6773;51.192;7.024;2022-09-28T08:37:42;8.80;99.90
13405;DHT22;6773;51.192;7.024;2022-09-28T08:40:20;8.80;99.90
13405;DHT22;6773;51.192;7.024;2022-09-28T08:42:56;8.90;99.90
13405;DHT22;6773;51.192;7.024;2022-09-28T08:45:27;8.90;99.90
13405;DHT22;6773;51.192;7.024;2022-09-28T08:48:02;8.90;99.90
13405;DHT22;6773;51.192;7.024;2022-09-28T08:51:08;8.90;99.90
13405;DHT22;6773;51.192;7.024;2022-09-28T08:56:39;8.90;99.90
13405;DHT22;6773;51.192;7.024;2022-09-28T08:59:20;8.90;99.90
13405;DHT22;6773;51.192;7.024;2022-09-28T09:01:49;8.90;99.90
13405;DHT22;6773;51.192;7.024;2022-09-28T09:04:17;8.90;99.90
13405;DHT22;6773;51.192;7.024;2022-09-28T09:09:47;8.90;99.90
13405;DHT22;6773;51.192;7.024;2022-09-28T09:15:18;8.80;99.90
13405;DHT22;6773;51.192;7.024;2022-09-28T09:18:16;8.80;99.90
13405;DHT22;6773;51.192;7.024;2022-09-28T09:23:18;8.80;99.90
13405;DHT22;6773;51.192;7.024;2022-09-28T09:25:47;8.90;99.90
13405;DHT22;6773;51.192;7.024;2022-09-28T09:47:49;9.30;99.90
13405;DHT22;6773;51.192;7.024;2022-09-28T09:50:25;9.20;99.90
13405;DHT22;6773;51.192;7.024;2022-09-28T09:55:44;9.10;99.90
13405;DHT22;6773;51.192;7.024;2022-09-28T09:58:42;9.90;99.90
13405;DHT22;6773;51.192;7.024;2022-09-28T10:01:14;13.30;99.90
13405;DHT22;6773;51.192;7.024;2022-09-28T10:03:44;12.30;99.90
13405;DHT22;6773;51.192;7.024;2022-09-28T10:06:23;11.50;99.90
13405;DHT22;6773;51.192;7.024;2022-09-28T10:09:03;10.90;99.90
13405;DHT22;6773;51.192;7.024;2022-09-28T10:11:43;10.60;99.90
13405;DHT22;6773;51.192;7.024;2022-09-28T10:14:17;10.50;99.90
13405;DHT22;6773;51.192;7.024;2022-09-28T10:16:46;10.30;99.90
13405;DHT22;6773;51.192;7.024;2022-09-28T10:19:14;10.10;99.90
13405;DHT22;6773;51.192;7.024;2022-09-28T10:21:41;10.10;99.90
13405;DHT22;6773;51.192;7.024;2022-09-28T10:24:16;10.00;99.90
13405;DHT22;6773;51.192;7.024;2022-09-28T10:26:47;10.00;99.90
13405;DHT22;6773;51.192;7.024;2022-09-28T10:29:16;10.00;99.90
13405;DHT22;6773;51.192;7.024;2022-09-28T10:31:48;9.90;99.90
13405;DHT22;6773;51.192;7.024;2022-09-28T10:34:17;10.00;99.90
13405;DHT22;6773;51.192;7.024;2022-09-28T10:36:55;10.10;99.90
13405;DHT22;6773;51.192;7.024;2022-09-28T10:44:21;10.40;99.90
13405;DHT22;6773;51.192;7.024;2022-09-28T10:46:58;10.40;99.90
13405;DHT22;6773;51.192;7.024;2022-09-28T10:49:25;10.40;99.90
13405;DHT22;6773;51.192;7.024;2022-09-28T10:51:53;10.30;99.90
13405;DHT22;6773;51.192;7.024;2022-09-28T10:56:52;10.40;99.90
13405;DHT22;6773;51.192;7.024;2022-09-28T10:59:37;10.60;99.90
13405;DHT22;6773;51.192;7.024;2022-09-28T11:02:24;10.70;99.90
13405;DHT22;6773;51.192;7.024;2022-09-28T11:04:54;10.80;99.90
13405;DHT22;6773;51.192;7.024;2022-09-28T11:07:32;10.90;99.90
13405;DHT22;6773;51.192;7.024;2022-09-28T11:09:59;11.00;99.90
13405;DHT22;6773;51.192;7.024;2022-09-28T11:12:37;11.20;99.90
13405;DHT22;6773;51.192;7.024;2022-09-28T11:15:15;11.20;99.90
13405;DHT22;6773;51.192;7.024;2022-09-28T11:17:41;11.20;99.90
13405;DHT22;6773;51.192;7.024;2022-09-28T11:31:05;11.40;99.90
13405;DHT22;6773;51.192;7.024;2022-09-28T11:33:19;11.30;99.90
13405;DHT22;6773;51.192;7.024;2022-09-28T11:38:36;11.40;99.90
13405;DHT22;6773;51.192;7.024;2022-09-28T11:47:24;11.60;99.90
13405;DHT22;6773;51.192;7.024;2022-09-28T11:50:16;11.50;99.90
13405;DHT22;6773;51.192;7.024;2022-09-28T11:55:37;11.30;99.90
13405;DHT22;6773;51.192;7.024;2022-09-28T11:58:11;11.20;99.90
13405;DHT22;6773;51.192;7.024;2022-09-28T12:00:45;11.20;99.90
13405;DHT22;6773;51.192;7.024;2022-09-28T12:03:17;11.20;99.90
13405;DHT22;6773;51.192;7.024;2022-09-28T12:05:54;11.20;99.90
13405;DHT22;6773;51.192;7.024;2022-09-28T12:08:35;11.20;99.90
13405;DHT22;6773;51.192;7.024;2022-09-28T12:11:16;11.10;99.90
13405;DHT22;6773;51.192;7.024;2022-09-28T12:13:47;11.10;99.90
13405;DHT22;6773;51.192;7.024;2022-09-28T12:16:25;11.20;99.90
13405;DHT22;6773;51.192;7.024;2022-09-28T12:19:03;11.20;99.90
13405;DHT22;6773;51.192;7.024;2022-09-28T12:21:38;11.40;99.90
13405;DHT22;6773;51.192;7.024;2022-09-28T12:26:40;11.40;99.90
13405;DHT22;6773;51.192;7.024;2022-09-28T12:29:13;11.50;99.90
13405;DHT22;6773;51.192;7.024;2022-09-28T12:31:51;11.50;99.90
13405;DHT22;6773;51.192;7.024;2022-09-28T12:34:18;11.60;99.90
13405;DHT22;6773;51.192;7.024;2022-09-28T12:37:05;11.60;99.90
13405;DHT22;6773;51.192;7.024;2022-09-28T12:50:07;12.80;99.90
13405;DHT22;6773;51.192;7.024;2022-09-28T12:52:46;13.50;99.90
13405;DHT22;6773;51.192;7.024;2022-09-28T13:17:03;12.20;99.90
13405;DHT22;6773;51.192;7.024;2022-09-28T13:20:01;12.30;99.90
13405;DHT22;6773;51.192;7.024;2022-09-28T13:25:15;12.40;99.90
13405;DHT22;6773;51.192;7.024;2022-09-28T13:27:56;12.50;99.90
13405;DHT22;6773;51.192;7.024;2022-09-28T13:30:22;12.60;99.90
13405;DHT22;6773;51.192;7.024;2022-09-28T13:32:50;12.60;99.90
13405;DHT22;6773;51.192;7.024;2022-09-28T13:35:17;12.80;99.90
13405;DHT22;6773;51.192;7.024;2022-09-28T13:37:46;12.80;99.90
13405;DHT22;6773;51.192;7.024;2022-09-28T13:51:22;12.50;99.90
13405;DHT22;6773;51.192;7.024;2022-09-28T13:59:28;14.00;99.90
13405;DHT22;6773;51.192;7.024;2022-09-28T14:02:10;14.10;99.90
13405;DHT22;6773;51.192;7.024;2022-09-28T14:04:59;14.10;99.90
13405;DHT22;6773;51.192;7.024;2022-09-28T14:10:53;13.70;99.90
13405;DHT22;6773;51.192;7.024;2022-09-28T14:16:21;13.80;99.90
13405;DHT22;6773;51.192;7.024;2022-09-28T14:18:52;14.30;99.90
13405;DHT22;6773;51.192;7.024;2022-09-28T14:29:52;14.10;99.90
13405;DHT22;6773;51.192;7.024;2022-09-28T14:32:23;14.00;99.90
13405;DHT22;6773;51.192;7.024;2022-09-28T14:35:00;13.80;99.90
13405;DHT22;6773;51.192;7.024;2022-09-28T14:37:38;13.60;99.90
13405;DHT22;6773;51.192;7.024;2022-09-28T14:40:36;13.40;99.90
13405;DHT22;6773;51.192;7.024;2022-09-28T14:48:54;13.40;99.90
13405;DHT22;6773;51.192;7.024;2022-09-28T14:53:52;14.30;99.90
13405;DHT22;6773;51.192;7.024;2022-09-28T14:56:19;14.50;99.90
13405;DHT22;6773;51.192;7.024;2022-09-28T14:58:50;14.70;99.90
13405;DHT22;6773;51.192;7.024;2022-09-28T15:01:19;14.50;99.90
13405;DHT22;6773;51.192;7.024;2022-09-28T15:03:48;14.20;99.90
13405;DHT22;6773;51.192;7.024;2022-09-28T15:08:41;13.60;99.90
13405;DHT22;6773;51.192;7.024;2022-09-28T15:11:14;13.50;99.90
13405;DHT22;6773;51.192;7.024;2022-09-28T15:13:41;13.40;99.90
13405;DHT22;6773;51.192;7.024;2022-09-28T15:16:09;13.20;99.90
13405;DHT22;6773;51.192;7.024;2022-09-28T15:24:33;13.50;99.90
13405;DHT22;6773;51.192;7.024;2022-09-28T15:27:00;13.70;99.90
13405;DHT22;6773;51.192;7.024;2022-09-28T15:29:27;13.50;99.90
13405;DHT22;6773;51.192;7.024;2022-09-28T15:31:56;13.40;99.90
13405;DHT22;6773;51.192;7.024;2022-09-28T15:34:35;13.10;99.90
13405;DHT22;6773;51.192;7.024;2022-09-28T15:37:19;12.90;99.90
13405;DHT22;6773;51.192;7.024;2022-09-28T15:39:47;12.70;99.90
13405;DHT22;6773;51.192;7.024;2022-09-28T15:42:17;12.60;99.90
13405;DHT22;6773;51.192;7.024;2022-09-28T15:44:59;12.50;99.90
13405;DHT22;6773;51.192;7.024;2022-09-28T15:47:27;12.40;99.90
13405;DHT22;6773;51.192;7.024;2022-09-28T15:50:05;12.40;99.90
13405;DHT22;6773;51.192;7.024;2022-09-28T15:52:50;12.30;99.90
13405;DHT22;6773;51.192;7.024;2022-09-28T15:55:33;12.50;99.90
13405;DHT22;6773;51.192;7.024;2022-09-28T15:58:15;12.30;99.90
13405;DHT22;6773;51.192;7.024;2022-09-28T16:00:42;12.00;99.90
13405;DHT22;6773;51.192;7.024;2022-09-28T16:08:20;11.80;99.90
13405;DHT22;6773;51.192;7.024;2022-09-28T16:13:33;11.60;99.90
13405;DHT22;6773;51.192;7.024;2022-09-28T16:15:59;11.30;99.90
13405;DHT22;6773;51.192;7.024;2022-09-28T16:18:29;10.70;99.90
13405;DHT22;6773;51.192;7.024;2022-09-28T16:21:19;10.30;99.90
13405;DHT22;6773;51.192;7.024;2022-09-28T16:23:50;10.00;99.90
13405;DHT22;6773;51.192;7.024;2022-09-28T16:26:27;9.90;99.90
13405;DHT22;6773;51.192;7.024;2022-09-28T16:28:53;9.70;99.90
13405;DHT22;6773;51.192;7.024;2022-09-28T16:33:51;9.60;99.90
13405;DHT22;6773;51.192;7.024;2022-09-28T16:36:18;9.60;99.90
13405;DHT22;6773;51.192;7.024;2022-09-28T16:38:45;9.60;99.90
13405;DHT22;6773;51.192;7.024;2022-09-28T16:41:12;9.60;99.90
13405;DHT22;6773;51.192;7.024;2022-09-28T16:43:38;9.60;99.90
13405;DHT22;6773;51.192;7.024;2022-09-28T16:48:34;9.60;99.90
13405;DHT22;6773;51.192;7.024;2022-09-28T16:53:27;9.50;99.90
13405;DHT22;6773;51.192;7.024;2022-09-28T16:56:11;9.50;99.90
13405;DHT22;6773;51.192;7.024;2022-09-28T16:58:37;9.50;99.90
13405;DHT22;6773;51.192;7.024;2022-09-28T17:01:04;9.50;99.90
13405;DHT22;6773;51.192;7.024;2022-09-28T17:10:51;9.40;99.90
13405;DHT22;6773;51.192;7.024;2022-09-28T17:13:21;12.40;99.90
13405;DHT22;6773;51.192;7.024;2022-09-28T17:15:48;11.40;99.90
13405;DHT22;6773;51.192;7.024;2022-09-28T17:18:18;10.70;99.90
13405;DHT22;6773;51.192;7.024;2022-09-28T17:20:46;10.20;99.90
13405;DHT22;6773;51.192;7.024;2022-09-28T17:23:13;10.00;99.90
13405;DHT22;6773;51.192;7.024;2022-09-28T17:25:39;9.80;99.90
13405;DHT22;6773;51.192;7.024;2022-09-28T17:28:05;9.70;99.90
13405;DHT22;6773;51.192;7.024;2022-09-28T17:30:31;9.70;99.90
13405;DHT22;6773;51.192;7.024;2022-09-28T17:40:24;9.50;99.90
13405;DHT22;6773;51.192;7.024;2022-09-28T17:47:47;9.40;99.90
13405;DHT22;6773;51.192;7.024;2022-09-28T17:50:27;9.40;99.90
13405;DHT22;6773;51.192;7.024;2022-09-28T17:52:55;9.40;99.90
13405;DHT22;6773;51.192;7.024;2022-09-28T17:55:26;9.40;99.90
13405;DHT22;6773;51.192;7.024;2022-09-28T17:57:53;9.30;99.90
13405;DHT22;6773;51.192;7.024;2022-09-28T18:02:45;9.20;99.90
13405;DHT22;6773;51.192;7.024;2022-09-28T18:05:12;9.20;99.90
13405;DHT22;6773;51.192;7.024;2022-09-28T18:07:43;9.20;99.90
13405;DHT22;6773;51.192;7.024;2022-09-28T18:10:13;9.20;99.90
13405;DHT22;6773;51.192;7.024;2022-09-28T18:12:39;9.30;99.90
13405;DHT22;6773;51.192;7.024;2022-09-28T18:17:31;9.20;99.90
13405;DHT22;6773;51.192;7.024;2022-09-28T18:19:57;9.20;99.90
13405;DHT22;6773;51.192;7.024;2022-09-28T18:22:23;9.30;99.90
13405;DHT22;6773;51.192;7.024;2022-09-28T18:24:48;9.10;99.90
13405;DHT22;6773;51.192;7.024;2022-09-28T18:27:14;9.10;99.90
13405;DHT22;6773;51.192;7.024;2022-09-28T18:32:05;9.00;99.90
13405;DHT22;6773;51.192;7.024;2022-09-28T18:34:34;8.90;99.90
13405;DHT22;6773;51.192;7.024;2022-09-28T18:37:01;8.80;99.90
13405;DHT22;6773;51.192;7.024;2022-09-28T18:39:26;8.80;99.90
13405;DHT22;6773;51.192;7.024;2022-09-28T18:41:52;8.70;99.90
13405;DHT22;6773;51.192;7.024;2022-09-28T18:44:18;8.70;99.90
13405;DHT22;6773;51.192;7.024;2022-09-28T18:46:43;8.70;99.90
13405;DHT22;6773;51.192;7.024;2022-09-28T18:51:35;8.60;99.90
13405;DHT22;6773;51.192;7.024;2022-09-28T18:54:02;8.60;99.90
13405;DHT22;6773;51.192;7.024;2022-09-28T18:56:33;8.60;99.90
13405;DHT22;6773;51.192;7.024;2022-09-28T18:58:59;8.60;99.90
13405;DHT22;6773;51.192;7.024;2022-09-28T19:01:26;8.60;99.90
13405;DHT22;6773;51.192;7.024;2022-09-28T19:03:51;8.50;99.90
13405;DHT22;6773;51.192;7.024;2022-09-28T19:06:18;8.60;99.90
13405;DHT22;6773;51.192;7.024;2022-09-28T19:08:50;8.50;99.90
13405;DHT22;6773;51.192;7.024;2022-09-28T19:11:16;8.50;99.90
13405;DHT22;6773;51.192;7.024;2022-09-28T19:16:10;8.50;99.90
13405;DHT22;6773;51.192;7.024;2022-09-28T19:18:37;8.50;99.90
13405;DHT22;6773;51.192;7.024;2022-09-28T19:21:04;8.40;99.90
13405;DHT22;6773;51.192;7.024;2022-09-28T19:23:31;8.40;99.90
13405;DHT22;6773;51.192;7.024;2022-09-28T19:26:00;8.40;99.90
13405;DHT22;6773;51.192;7.024;2022-09-28T19:30:57;8.40;99.90
13405;DHT22;6773;51.192;7.024;2022-09-28T19:33:23;8.30;99.90
13405;DHT22;6773;51.192;7.024;2022-09-28T19:35:55;8.40;99.90
13405;DHT22;6773;51.192;7.024;2022-09-28T19:38:21;8.30;99.90
13405;DHT22;6773;51.192;7.024;2022-09-28T19:40:47;8.30;99.90
13405;DHT22;6773;51.192;7.024;2022-09-28T19:43:12;8.20;99.90
13405;DHT22;6773;51.192;7.024;2022-09-28T19:45:39;8.20;99.90
13405;DHT22;6773;51.192;7.024;2022-09-28T19:48:04;8.20;99.90
13405;DHT22;6773;51.192;7.024;2022-09-28T19:50:30;8.20;99.90
13405;DHT22;6773;51.192;7.024;2022-09-28T19:55:28;8.20;99.90
13405;DHT22;6773;51.192;7.024;2022-09-28T20:00:24;8.10;99.90
13405;DHT22;6773;51.192;7.024;2022-09-28T20:05:16;8.10;99.90
13405;DHT22;6773;51.192;7.024;2022-09-28T20:10:08;8.10;99.90
13405;DHT22;6773;51.192;7.024;2022-09-28T20:12:36;8.00;99.90
13405;DHT22;6773;51.192;7.024;2022-09-28T20:15:02;8.00;99.90
13405;DHT22;6773;51.192;7.024;2022-09-28T20:17:29;8.00;99.90
13405;DHT22;6773;51.192;7.024;2022-09-28T20:19:55;8.10;99.90
13405;DHT22;6773;51.192;7.024;2022-09-28T20:22:22;8.10;99.90
13405;DHT22;6773;51.192;7.024;2022-09-28T20:24:47;8.10;99.90
13405;DHT22;6773;51.192;7.024;2022-09-28T20:27:13;8.10;99.90
13405;DHT22;6773;51.192;7.024;2022-09-28T20:29:38;8.10;99.90
13405;DHT22;6773;51.192;7.024;2022-09-28T20:32:04;8.10;99.90
13405;DHT22;6773;51.192;7.024;2022-09-28T20:34:30;8.10;99.90
13405;DHT22;6773;51.192;7.024;2022-09-28T20:36:57;8.10;99.90
13405;DHT22;6773;51.192;7.024;2022-09-28T20:39:23;8.00;99.90
13405;DHT22;6773;51.192;7.024;2022-09-28T20:44:15;8.00;99.90
13405;DHT22;6773;51.192;7.024;2022-09-28T20:46:40;8.00;99.90
13405;DHT22;6773;51.192;7.024;2022-09-28T20:49:08;8.00;99.90
13405;DHT22;6773;51.192;7.024;2022-09-28T20:54:00;7.90;99.90
13405;DHT22;6773;51.192;7.024;2022-09-28T20:56:31;7.90;99.90
13405;DHT22;6773;51.192;7.024;2022-09-28T20:59:02;7.90;99.90
13405;DHT22;6773;51.192;7.024;2022-09-28T21:01:29;7.90;99.90
13405;DHT22;6773;51.192;7.024;2022-09-28T21:06:23;7.90;99.90
13405;DHT22;6773;51.192;7.024;2022-09-28T21:08:49;7.90;99.90
13405;DHT22;6773;51.192;7.024;2022-09-28T21:11:16;7.90;99.90
13405;DHT22;6773;51.192;7.024;2022-09-28T21:13:42;7.90;99.90
13405;DHT22;6773;51.192;7.024;2022-09-28T21:16:09;7.90;99.90
13405;DHT22;6773;51.192;7.024;2022-09-28T21:18:36;7.90;99.90
13405;DHT22;6773;51.192;7.024;2022-09-28T21:21:05;7.90;99.90
13405;DHT22;6773;51.192;7.024;2022-09-28T21:26:06;7.90;99.90
13405;DHT22;6773;51.192;7.024;2022-09-28T21:28:32;7.90;99.90
13405;DHT22;6773;51.192;7.024;2022-09-28T21:30:58;7.90;99.90
13405;DHT22;6773;51.192;7.024;2022-09-28T21:33:24;7.90;99.90
13405;DHT22;6773;51.192;7.024;2022-09-28T21:35:50;7.90;99.90
13405;DHT22;6773;51.192;7.024;2022-09-28T21:38:15;7.90;99.90
13405;DHT22;6773;51.192;7.024;2022-09-28T21:40:41;7.90;99.90
13405;DHT22;6773;51.192;7.024;2022-09-28T21:45:32;7.90;99.90
13405;DHT22;6773;51.192;7.024;2022-09-28T21:47:58;7.90;99.90
13405;DHT22;6773;51.192;7.024;2022-09-28T21:50:25;7.80;99.90
13405;DHT22;6773;51.192;7.024;2022-09-28T21:52:52;7.80;99.90
13405;DHT22;6773;51.192;7.024;2022-09-28T21:55:22;7.80;99.90